Terminal Aerodrome Forecast
Issued by NWS

Home | Current Version | Previous Version | Text Only | Print | Product List | Glossary On
Versions: 1 2 3 4 5 6 7 8 9 10 11 12 13 14 15 16 17 18 19 20 21
000
FTUS43 KDVN 290500
TAFBRL
TAF
KBRL 290520Z 2906/3006 11005KT P6SM FEW060 SCT120
      TEMPO 2906/2910 5SM BR SCT007
     FM291000 14005KT 5SM BR VCSH BKN050
     FM291800 17008KT P6SM VCTS FEW100CB BKN200 PROB30 2919/3001 2SM
      TSRA BKN030CB OVC050=

USA.gov is the U.S. government's official web portal to all federal, state and local government web resources and services.